sensor_id;sensor_type;location;lat;lon;timestamp;P1;durP1;ratioP1;P2;durP2;ratioP2
5149;SDS011;2593;52.466;13.436;2023-04-24T00:01:15;17.13;;;6.40;;
5149;SDS011;2593;52.466;13.436;2023-04-24T00:03:42;8.63;;;6.07;;
5149;SDS011;2593;52.466;13.436;2023-04-24T00:06:07;7.33;;;6.20;;
5149;SDS011;2593;52.466;13.436;2023-04-24T00:08:33;9.90;;;5.90;;
5149;SDS011;2593;52.466;13.436;2023-04-24T00:11:00;10.90;;;7.00;;
5149;SDS011;2593;52.466;13.436;2023-04-24T00:13:26;9.40;;;6.17;;
5149;SDS011;2593;52.466;13.436;2023-04-24T00:15:53;7.90;;;6.03;;
5149;SDS011;2593;52.466;13.436;2023-04-24T00:18:20;13.53;;;6.63;;
5149;SDS011;2593;52.466;13.436;2023-04-24T00:20:47;12.87;;;7.07;;
5149;SDS011;2593;52.466;13.436;2023-04-24T00:23:13;8.50;;;6.57;;
5149;SDS011;2593;52.466;13.436;2023-04-24T00:25:39;9.20;;;6.20;;
5149;SDS011;2593;52.466;13.436;2023-04-24T00:28:05;7.20;;;6.50;;
5149;SDS011;2593;52.466;13.436;2023-04-24T00:30:30;6.80;;;6.10;;
5149;SDS011;2593;52.466;13.436;2023-04-24T00:32:56;7.47;;;6.23;;
5149;SDS011;2593;52.466;13.436;2023-04-24T00:35:22;7.67;;;6.87;;
5149;SDS011;2593;52.466;13.436;2023-04-24T00:37:48;6.60;;;5.90;;
5149;SDS011;2593;52.466;13.436;2023-04-24T00:40:14;8.17;;;6.63;;
5149;SDS011;2593;52.466;13.436;2023-04-24T00:42:40;6.37;;;5.70;;
5149;SDS011;2593;52.466;13.436;2023-04-24T00:45:06;6.13;;;5.53;;
5149;SDS011;2593;52.466;13.436;2023-04-24T00:47:33;7.60;;;6.50;;
5149;SDS011;2593;52.466;13.436;2023-04-24T00:50:01;6.87;;;6.27;;
5149;SDS011;2593;52.466;13.436;2023-04-24T00:52:30;12.33;;;6.77;;
5149;SDS011;2593;52.466;13.436;2023-04-24T00:54:57;6.87;;;6.20;;
5149;SDS011;2593;52.466;13.436;2023-04-24T00:57:23;7.73;;;6.80;;
5149;SDS011;2593;52.466;13.436;2023-04-24T00:59:50;8.60;;;6.57;;
5149;SDS011;2593;52.466;13.436;2023-04-24T01:02:16;8.10;;;6.03;;
5149;SDS011;2593;52.466;13.436;2023-04-24T01:04:42;7.43;;;6.33;;
5149;SDS011;2593;52.466;13.436;2023-04-24T01:07:08;12.50;;;6.90;;
5149;SDS011;2593;52.466;13.436;2023-04-24T01:09:45;9.13;;;7.10;;
5149;SDS011;2593;52.466;13.436;2023-04-24T01:12:13;7.43;;;6.57;;
5149;SDS011;2593;52.466;13.436;2023-04-24T01:14:40;14.20;;;7.00;;
5149;SDS011;2593;52.466;13.436;2023-04-24T01:17:06;8.47;;;6.00;;
5149;SDS011;2593;52.466;13.436;2023-04-24T01:19:32;6.50;;;5.93;;
5149;SDS011;2593;52.466;13.436;2023-04-24T01:21:58;7.23;;;6.53;;
5149;SDS011;2593;52.466;13.436;2023-04-24T01:24:26;6.77;;;6.07;;
5149;SDS011;2593;52.466;13.436;2023-04-24T01:26:53;6.60;;;5.87;;
5149;SDS011;2593;52.466;13.436;2023-04-24T01:29:19;7.13;;;6.17;;
5149;SDS011;2593;52.466;13.436;2023-04-24T01:31:45;7.10;;;6.00;;
5149;SDS011;2593;52.466;13.436;2023-04-24T01:34:11;12.43;;;6.80;;
5149;SDS011;2593;52.466;13.436;2023-04-24T01:36:37;8.33;;;6.43;;
5149;SDS011;2593;52.466;13.436;2023-04-24T01:39:03;6.13;;;5.53;;
5149;SDS011;2593;52.466;13.436;2023-04-24T01:41:29;11.90;;;6.73;;
5149;SDS011;2593;52.466;13.436;2023-04-24T01:43:56;7.97;;;7.17;;
5149;SDS011;2593;52.466;13.436;2023-04-24T01:46:23;11.13;;;7.10;;
5149;SDS011;2593;52.466;13.436;2023-04-24T01:48:49;8.57;;;7.50;;
5149;SDS011;2593;52.466;13.436;2023-04-24T01:51:16;9.07;;;7.57;;
5149;SDS011;2593;52.466;13.436;2023-04-24T01:53:42;9.60;;;7.53;;
5149;SDS011;2593;52.466;13.436;2023-04-24T01:56:08;9.30;;;7.50;;
5149;SDS011;2593;52.466;13.436;2023-04-24T01:58:34;7.63;;;6.87;;
5149;SDS011;2593;52.466;13.436;2023-04-24T02:01:00;7.50;;;6.67;;
5149;SDS011;2593;52.466;13.436;2023-04-24T02:03:26;8.60;;;6.70;;
5149;SDS011;2593;52.466;13.436;2023-04-24T02:05:52;17.73;;;7.50;;
5149;SDS011;2593;52.466;13.436;2023-04-24T02:08:17;10.67;;;6.70;;
5149;SDS011;2593;52.466;13.436;2023-04-24T02:10:43;7.63;;;6.83;;
5149;SDS011;2593;52.466;13.436;2023-04-24T02:13:09;7.40;;;6.70;;
5149;SDS011;2593;52.466;13.436;2023-04-24T02:15:35;7.90;;;6.87;;
5149;SDS011;2593;52.466;13.436;2023-04-24T02:18:01;11.87;;;7.13;;
5149;SDS011;2593;52.466;13.436;2023-04-24T02:20:26;8.23;;;7.43;;
5149;SDS011;2593;52.466;13.436;2023-04-24T02:22:52;11.80;;;8.17;;
5149;SDS011;2593;52.466;13.436;2023-04-24T02:25:18;8.33;;;7.23;;
5149;SDS011;2593;52.466;13.436;2023-04-24T02:27:44;8.93;;;7.10;;
5149;SDS011;2593;52.466;13.436;2023-04-24T02:30:09;7.70;;;7.00;;
5149;SDS011;2593;52.466;13.436;2023-04-24T02:32:35;7.57;;;6.77;;
5149;SDS011;2593;52.466;13.436;2023-04-24T02:35:01;8.93;;;8.00;;
5149;SDS011;2593;52.466;13.436;2023-04-24T02:37:27;9.13;;;7.00;;
5149;SDS011;2593;52.466;13.436;2023-04-24T02:39:52;9.60;;;7.20;;
5149;SDS011;2593;52.466;13.436;2023-04-24T02:42:18;9.60;;;6.73;;
5149;SDS011;2593;52.466;13.436;2023-04-24T02:44:43;7.43;;;6.70;;
5149;SDS011;2593;52.466;13.436;2023-04-24T02:47:09;8.03;;;7.20;;
5149;SDS011;2593;52.466;13.436;2023-04-24T02:49:35;9.33;;;7.50;;
5149;SDS011;2593;52.466;13.436;2023-04-24T02:52:00;17.87;;;7.37;;
5149;SDS011;2593;52.466;13.436;2023-04-24T02:54:26;8.30;;;6.67;;
5149;SDS011;2593;52.466;13.436;2023-04-24T02:56:52;10.07;;;8.40;;
5149;SDS011;2593;52.466;13.436;2023-04-24T02:59:17;9.87;;;7.07;;
5149;SDS011;2593;52.466;13.436;2023-04-24T03:01:43;9.40;;;7.47;;
5149;SDS011;2593;52.466;13.436;2023-04-24T03:04:08;15.00;;;7.67;;
5149;SDS011;2593;52.466;13.436;2023-04-24T03:06:35;11.57;;;7.67;;
5149;SDS011;2593;52.466;13.436;2023-04-24T03:09:01;8.30;;;7.50;;
5149;SDS011;2593;52.466;13.436;2023-04-24T03:11:27;12.10;;;7.40;;
5149;SDS011;2593;52.466;13.436;2023-04-24T03:13:52;23.27;;;7.70;;
5149;SDS011;2593;52.466;13.436;2023-04-24T03:16:18;12.20;;;7.53;;
5149;SDS011;2593;52.466;13.436;2023-04-24T03:18:44;9.77;;;7.77;;
5149;SDS011;2593;52.466;13.436;2023-04-24T03:21:09;11.10;;;9.03;;
5149;SDS011;2593;52.466;13.436;2023-04-24T03:23:36;8.90;;;7.80;;
5149;SDS011;2593;52.466;13.436;2023-04-24T03:26:02;9.20;;;7.20;;
5149;SDS011;2593;52.466;13.436;2023-04-24T03:28:27;9.00;;;7.50;;
5149;SDS011;2593;52.466;13.436;2023-04-24T03:30:53;13.30;;;7.00;;
5149;SDS011;2593;52.466;13.436;2023-04-24T03:33:19;11.03;;;7.73;;
5149;SDS011;2593;52.466;13.436;2023-04-24T03:35:45;7.90;;;7.13;;
5149;SDS011;2593;52.466;13.436;2023-04-24T03:38:10;8.20;;;7.33;;
5149;SDS011;2593;52.466;13.436;2023-04-24T03:40:36;8.03;;;7.23;;
5149;SDS011;2593;52.466;13.436;2023-04-24T03:43:01;9.00;;;7.50;;
5149;SDS011;2593;52.466;13.436;2023-04-24T03:45:27;9.13;;;7.83;;
5149;SDS011;2593;52.466;13.436;2023-04-24T03:47:53;8.47;;;7.03;;
5149;SDS011;2593;52.466;13.436;2023-04-24T03:50:18;8.97;;;7.33;;
5149;SDS011;2593;52.466;13.436;2023-04-24T03:52:44;8.37;;;7.57;;
5149;SDS011;2593;52.466;13.436;2023-04-24T03:55:10;9.43;;;7.40;;
5149;SDS011;2593;52.466;13.436;2023-04-24T03:57:37;13.33;;;8.20;;
5149;SDS011;2593;52.466;13.436;2023-04-24T04:00:04;11.67;;;8.70;;
5149;SDS011;2593;52.466;13.436;2023-04-24T04:02:31;9.13;;;7.30;;
5149;SDS011;2593;52.466;13.436;2023-04-24T04:04:56;9.87;;;8.10;;
5149;SDS011;2593;52.466;13.436;2023-04-24T04:07:22;8.57;;;6.60;;
5149;SDS011;2593;52.466;13.436;2023-04-24T04:09:47;8.30;;;7.00;;
5149;SDS011;2593;52.466;13.436;2023-04-24T04:12:13;8.97;;;7.30;;
5149;SDS011;2593;52.466;13.436;2023-04-24T04:14:39;9.57;;;6.97;;
5149;SDS011;2593;52.466;13.436;2023-04-24T04:17:05;8.00;;;6.97;;
5149;SDS011;2593;52.466;13.436;2023-04-24T04:19:30;7.87;;;6.67;;
5149;SDS011;2593;52.466;13.436;2023-04-24T04:21:56;8.87;;;7.37;;
5149;SDS011;2593;52.466;13.436;2023-04-24T04:24:21;8.70;;;7.80;;
5149;SDS011;2593;52.466;13.436;2023-04-24T04:26:47;16.93;;;11.30;;
5149;SDS011;2593;52.466;13.436;2023-04-24T04:29:16;13.10;;;9.50;;
5149;SDS011;2593;52.466;13.436;2023-04-24T04:31:43;12.93;;;10.23;;
5149;SDS011;2593;52.466;13.436;2023-04-24T04:34:09;12.83;;;8.87;;
5149;SDS011;2593;52.466;13.436;2023-04-24T04:36:36;11.67;;;7.23;;
5149;SDS011;2593;52.466;13.436;2023-04-24T04:39:05;7.63;;;6.93;;
5149;SDS011;2593;52.466;13.436;2023-04-24T04:41:30;10.33;;;7.73;;
5149;SDS011;2593;52.466;13.436;2023-04-24T04:43:57;11.47;;;8.00;;
5149;SDS011;2593;52.466;13.436;2023-04-24T04:46:25;7.80;;;6.67;;
5149;SDS011;2593;52.466;13.436;2023-04-24T04:48:52;11.03;;;8.40;;
5149;SDS011;2593;52.466;13.436;2023-04-24T04:51:18;11.10;;;7.60;;
5149;SDS011;2593;52.466;13.436;2023-04-24T04:53:43;12.20;;;6.47;;
5149;SDS011;2593;52.466;13.436;2023-04-24T04:56:09;9.40;;;7.20;;
5149;SDS011;2593;52.466;13.436;2023-04-24T04:58:35;13.63;;;7.10;;
5149;SDS011;2593;52.466;13.436;2023-04-24T05:01:01;8.97;;;6.97;;
5149;SDS011;2593;52.466;13.436;2023-04-24T05:03:27;8.80;;;6.00;;
5149;SDS011;2593;52.466;13.436;2023-04-24T05:05:53;8.40;;;6.20;;
5149;SDS011;2593;52.466;13.436;2023-04-24T05:08:18;6.90;;;5.87;;
5149;SDS011;2593;52.466;13.436;2023-04-24T05:10:44;5.03;;;4.63;;
5149;SDS011;2593;52.466;13.436;2023-04-24T05:13:10;7.30;;;5.50;;
5149;SDS011;2593;52.466;13.436;2023-04-24T05:15:36;6.47;;;5.83;;
5149;SDS011;2593;52.466;13.436;2023-04-24T05:18:01;10.90;;;4.80;;
5149;SDS011;2593;52.466;13.436;2023-04-24T05:20:27;8.90;;;5.80;;
5149;SDS011;2593;52.466;13.436;2023-04-24T05:22:54;9.17;;;5.70;;
5149;SDS011;2593;52.466;13.436;2023-04-24T05:25:19;11.10;;;5.30;;
5149;SDS011;2593;52.466;13.436;2023-04-24T05:27:46;8.63;;;5.30;;
5149;SDS011;2593;52.466;13.436;2023-04-24T05:30:12;14.03;;;4.77;;
5149;SDS011;2593;52.466;13.436;2023-04-24T05:32:37;7.33;;;4.00;;
5149;SDS011;2593;52.466;13.436;2023-04-24T05:35:03;5.90;;;4.10;;
5149;SDS011;2593;52.466;13.436;2023-04-24T05:37:29;5.97;;;4.37;;
5149;SDS011;2593;52.466;13.436;2023-04-24T05:39:54;9.40;;;4.80;;
5149;SDS011;2593;52.466;13.436;2023-04-24T05:42:20;8.17;;;5.90;;
5149;SDS011;2593;52.466;13.436;2023-04-24T05:44:46;10.70;;;4.30;;
5149;SDS011;2593;52.466;13.436;2023-04-24T05:47:11;4.13;;;3.77;;
5149;SDS011;2593;52.466;13.436;2023-04-24T05:49:37;23.13;;;6.07;;
5149;SDS011;2593;52.466;13.436;2023-04-24T05:52:03;5.10;;;4.60;;
5149;SDS011;2593;52.466;13.436;2023-04-24T05:54:30;4.50;;;3.40;;
5149;SDS011;2593;52.466;13.436;2023-04-24T05:56:56;6.80;;;3.83;;
5149;SDS011;2593;52.466;13.436;2023-04-24T05:59:21;8.30;;;3.47;;
5149;SDS011;2593;52.466;13.436;2023-04-24T06:01:47;10.10;;;4.17;;
5149;SDS011;2593;52.466;13.436;2023-04-24T06:04:12;7.53;;;3.90;;
5149;SDS011;2593;52.466;13.436;2023-04-24T06:06:38;12.73;;;3.40;;
5149;SDS011;2593;52.466;13.436;2023-04-24T06:09:05;3.27;;;3.07;;
5149;SDS011;2593;52.466;13.436;2023-04-24T06:11:31;3.73;;;2.80;;
5149;SDS011;2593;52.466;13.436;2023-04-24T06:13:57;3.03;;;2.57;;
5149;SDS011;2593;52.466;13.436;2023-04-24T06:16:23;9.33;;;2.20;;
5149;SDS011;2593;52.466;13.436;2023-04-24T06:18:48;2.47;;;2.27;;
5149;SDS011;2593;52.466;13.436;2023-04-24T06:21:15;7.57;;;2.40;;
5149;SDS011;2593;52.466;13.436;2023-04-24T06:23:41;2.60;;;2.40;;
5149;SDS011;2593;52.466;13.436;2023-04-24T06:26:07;5.13;;;2.43;;
5149;SDS011;2593;52.466;13.436;2023-04-24T06:28:32;2.30;;;2.10;;
5149;SDS011;2593;52.466;13.436;2023-04-24T06:30:58;6.03;;;2.20;;
5149;SDS011;2593;52.466;13.436;2023-04-24T06:33:24;5.43;;;2.00;;
5149;SDS011;2593;52.466;13.436;2023-04-24T06:35:49;2.20;;;2.00;;
5149;SDS011;2593;52.466;13.436;2023-04-24T06:38:15;1.87;;;1.40;;
5149;SDS011;2593;52.466;13.436;2023-04-24T06:40:41;3.50;;;1.53;;
5149;SDS011;2593;52.466;13.436;2023-04-24T06:43:06;2.60;;;1.70;;
5149;SDS011;2593;52.466;13.436;2023-04-24T06:45:32;10.53;;;2.40;;
5149;SDS011;2593;52.466;13.436;2023-04-24T06:47:58;1.97;;;1.87;;
5149;SDS011;2593;52.466;13.436;2023-04-24T06:50:24;1.93;;;1.50;;
5149;SDS011;2593;52.466;13.436;2023-04-24T06:52:50;4.23;;;1.87;;
5149;SDS011;2593;52.466;13.436;2023-04-24T06:55:15;1.63;;;1.03;;
5149;SDS011;2593;52.466;13.436;2023-04-24T06:57:41;2.70;;;1.17;;
5149;SDS011;2593;52.466;13.436;2023-04-24T07:00:07;1.20;;;1.10;;
5149;SDS011;2593;52.466;13.436;2023-04-24T07:02:34;5.30;;;1.60;;
5149;SDS011;2593;52.466;13.436;2023-04-24T07:05:00;1.30;;;1.00;;
5149;SDS011;2593;52.466;13.436;2023-04-24T07:07:26;9.80;;;1.47;;
5149;SDS011;2593;52.466;13.436;2023-04-24T07:09:52;1.63;;;1.07;;
5149;SDS011;2593;52.466;13.436;2023-04-24T07:12:19;2.97;;;1.50;;
5149;SDS011;2593;52.466;13.436;2023-04-24T07:14:46;4.03;;;1.40;;
5149;SDS011;2593;52.466;13.436;2023-04-24T07:17:12;6.43;;;1.00;;
5149;SDS011;2593;52.466;13.436;2023-04-24T07:19:38;1.80;;;1.33;;
5149;SDS011;2593;52.466;13.436;2023-04-24T07:22:04;2.50;;;0.93;;
5149;SDS011;2593;52.466;13.436;2023-04-24T07:24:30;2.73;;;1.33;;
5149;SDS011;2593;52.466;13.436;2023-04-24T07:26:57;1.50;;;1.00;;
5149;SDS011;2593;52.466;13.436;2023-04-24T07:29:23;2.80;;;1.37;;
5149;SDS011;2593;52.466;13.436;2023-04-24T07:31:48;1.27;;;1.17;;
5149;SDS011;2593;52.466;13.436;2023-04-24T07:34:14;4.30;;;1.13;;
5149;SDS011;2593;52.466;13.436;2023-04-24T07:36:40;1.20;;;1.10;;
5149;SDS011;2593;52.466;13.436;2023-04-24T07:39:06;10.20;;;1.47;;
5149;SDS011;2593;52.466;13.436;2023-04-24T07:41:33;7.80;;;1.00;;
5149;SDS011;2593;52.466;13.436;2023-04-24T07:43:58;1.50;;;1.00;;
5149;SDS011;2593;52.466;13.436;2023-04-24T07:46:24;3.13;;;0.90;;
5149;SDS011;2593;52.466;13.436;2023-04-24T07:48:50;1.20;;;0.90;;
5149;SDS011;2593;52.466;13.436;2023-04-24T07:51:16;1.47;;;0.70;;
5149;SDS011;2593;52.466;13.436;2023-04-24T07:53:42;1.33;;;0.97;;
5149;SDS011;2593;52.466;13.436;2023-04-24T07:56:08;3.17;;;0.80;;
5149;SDS011;2593;52.466;13.436;2023-04-24T07:58:34;2.90;;;1.40;;
5149;SDS011;2593;52.466;13.436;2023-04-24T08:01:00;1.37;;;1.00;;
5149;SDS011;2593;52.466;13.436;2023-04-24T08:03:26;7.13;;;1.30;;
5149;SDS011;2593;52.466;13.436;2023-04-24T08:05:51;3.83;;;0.80;;
5149;SDS011;2593;52.466;13.436;2023-04-24T08:08:17;1.88;;;0.90;;
5149;SDS011;2593;52.466;13.436;2023-04-24T08:10:44;4.03;;;1.13;;
5149;SDS011;2593;52.466;13.436;2023-04-24T08:13:10;1.00;;;0.80;;
5149;SDS011;2593;52.466;13.436;2023-04-24T08:15:36;1.63;;;0.90;;
5149;SDS011;2593;52.466;13.436;2023-04-24T08:18:02;1.40;;;0.80;;
5149;SDS011;2593;52.466;13.436;2023-04-24T08:20:28;1.23;;;0.80;;
5149;SDS011;2593;52.466;13.436;2023-04-24T08:22:53;2.57;;;0.90;;
5149;SDS011;2593;52.466;13.436;2023-04-24T08:25:20;1.50;;;1.20;;
5149;SDS011;2593;52.466;13.436;2023-04-24T08:27:47;1.77;;;0.90;;
5149;SDS011;2593;52.466;13.436;2023-04-24T08:30:13;1.20;;;0.70;;
5149;SDS011;2593;52.466;13.436;2023-04-24T08:32:39;1.77;;;1.10;;
5149;SDS011;2593;52.466;13.436;2023-04-24T08:35:05;0.90;;;0.73;;
5149;SDS011;2593;52.466;13.436;2023-04-24T08:37:31;1.10;;;0.60;;
5149;SDS011;2593;52.466;13.436;2023-04-24T08:39:57;1.98;;;0.93;;
5149;SDS011;2593;52.466;13.436;2023-04-24T08:42:23;2.47;;;1.00;;
5149;SDS011;2593;52.466;13.436;2023-04-24T08:44:49;2.08;;;0.90;;
5149;SDS011;2593;52.466;13.436;2023-04-24T08:47:15;1.52;;;1.42;;
5149;SDS011;2593;52.466;13.436;2023-04-24T08:49:41;2.17;;;0.60;;
5149;SDS011;2593;52.466;13.436;2023-04-24T08:52:07;1.30;;;0.82;;
5149;SDS011;2593;52.466;13.436;2023-04-24T08:54:33;10.02;;;1.20;;
5149;SDS011;2593;52.466;13.436;2023-04-24T08:57:00;0.93;;;0.60;;
5149;SDS011;2593;52.466;13.436;2023-04-24T08:59:28;1.50;;;0.90;;
5149;SDS011;2593;52.466;13.436;2023-04-24T09:01:55;1.23;;;0.80;;
5149;SDS011;2593;52.466;13.436;2023-04-24T09:04:21;1.17;;;0.70;;
5149;SDS011;2593;52.466;13.436;2023-04-24T09:06:49;1.25;;;1.00;;
5149;SDS011;2593;52.466;13.436;2023-04-24T09:09:26;1.80;;;1.70;;
5149;SDS011;2593;52.466;13.436;2023-04-24T09:11:56;1.20;;;1.10;;
5149;SDS011;2593;52.466;13.436;2023-04-24T09:14:23;2.08;;;1.58;;
5149;SDS011;2593;52.466;13.436;2023-04-24T09:16:49;3.88;;;2.50;;
5149;SDS011;2593;52.466;13.436;2023-04-24T09:19:15;2.78;;;1.27;;
5149;SDS011;2593;52.466;13.436;2023-04-24T09:21:40;2.33;;;0.90;;
5149;SDS011;2593;52.466;13.436;2023-04-24T09:24:15;1.83;;;1.07;;
5149;SDS011;2593;52.466;13.436;2023-04-24T09:26:47;2.30;;;0.87;;
5149;SDS011;2593;52.466;13.436;2023-04-24T09:29:17;4.40;;;1.80;;
5149;SDS011;2593;52.466;13.436;2023-04-24T09:31:44;5.70;;;1.40;;
5149;SDS011;2593;52.466;13.436;2023-04-24T09:34:11;4.40;;;0.80;;
5149;SDS011;2593;52.466;13.436;2023-04-24T09:36:38;3.43;;;1.10;;
5149;SDS011;2593;52.466;13.436;2023-04-24T09:39:06;2.60;;;1.00;;
5149;SDS011;2593;52.466;13.436;2023-04-24T09:41:34;1.83;;;0.80;;
5149;SDS011;2593;52.466;13.436;2023-04-24T09:44:13;3.57;;;1.03;;
5149;SDS011;2593;52.466;13.436;2023-04-24T09:46:43;4.27;;;1.27;;
5149;SDS011;2593;52.466;13.436;2023-04-24T09:49:12;3.77;;;1.10;;
5149;SDS011;2593;52.466;13.436;2023-04-24T09:51:40;2.33;;;1.00;;
5149;SDS011;2593;52.466;13.436;2023-04-24T09:54:16;1.67;;;1.00;;
5149;SDS011;2593;52.466;13.436;2023-04-24T09:56:45;5.03;;;1.10;;
5149;SDS011;2593;52.466;13.436;2023-04-24T09:59:13;1.67;;;1.00;;
5149;SDS011;2593;52.466;13.436;2023-04-24T10:01:39;2.60;;;1.20;;
5149;SDS011;2593;52.466;13.436;2023-04-24T10:04:14;4.20;;;2.30;;
5149;SDS011;2593;52.466;13.436;2023-04-24T10:06:42;7.40;;;3.70;;
5149;SDS011;2593;52.466;13.436;2023-04-24T10:09:08;3.47;;;1.80;;
5149;SDS011;2593;52.466;13.436;2023-04-24T10:11:36;1.43;;;0.90;;
5149;SDS011;2593;52.466;13.436;2023-04-24T10:14:02;1.00;;;0.90;;
5149;SDS011;2593;52.466;13.436;2023-04-24T10:16:28;1.50;;;0.80;;
5149;SDS011;2593;52.466;13.436;2023-04-24T10:18:56;2.07;;;0.87;;
5149;SDS011;2593;52.466;13.436;2023-04-24T10:21:25;1.23;;;0.90;;
5149;SDS011;2593;52.466;13.436;2023-04-24T10:23:51;0.80;;;0.70;;
5149;SDS011;2593;52.466;13.436;2023-04-24T10:26:18;1.73;;;0.70;;
5149;SDS011;2593;52.466;13.436;2023-04-24T10:28:46;4.83;;;0.80;;
5149;SDS011;2593;52.466;13.436;2023-04-24T10:31:13;2.53;;;0.80;;
5149;SDS011;2593;52.466;13.436;2023-04-24T10:33:43;0.90;;;0.70;;
5149;SDS011;2593;52.466;13.436;2023-04-24T10:36:10;7.57;;;0.83;;
5149;SDS011;2593;52.466;13.436;2023-04-24T10:38:38;4.20;;;0.70;;
5149;SDS011;2593;52.466;13.436;2023-04-24T10:41:10;3.97;;;0.83;;
5149;SDS011;2593;52.466;13.436;2023-04-24T10:46:20;1.03;;;0.90;;
5149;SDS011;2593;52.466;13.436;2023-04-24T10:48:52;2.50;;;1.30;;
5149;SDS011;2593;52.466;13.436;2023-04-24T10:51:21;2.33;;;1.10;;
5149;SDS011;2593;52.466;13.436;2023-04-24T10:53:47;1.67;;;0.90;;
5149;SDS011;2593;52.466;13.436;2023-04-24T10:56:15;1.67;;;1.17;;
5149;SDS011;2593;52.466;13.436;2023-04-24T10:58:43;0.90;;;0.80;;
5149;SDS011;2593;52.466;13.436;2023-04-24T11:04:00;1.67;;;1.57;;
5149;SDS011;2593;52.466;13.436;2023-04-24T11:06:28;2.93;;;2.10;;
5149;SDS011;2593;52.466;13.436;2023-04-24T11:09:05;5.80;;;2.80;;
5149;SDS011;2593;52.466;13.436;2023-04-24T11:11:33;2.13;;;0.93;;
5149;SDS011;2593;52.466;13.436;2023-04-24T11:14:01;2.10;;;0.90;;
5149;SDS011;2593;52.466;13.436;2023-04-24T11:16:38;7.00;;;1.17;;
5149;SDS011;2593;52.466;13.436;2023-04-24T11:19:08;2.07;;;0.90;;
5149;SDS011;2593;52.466;13.436;2023-04-24T11:21:40;3.20;;;0.80;;
5149;SDS011;2593;52.466;13.436;2023-04-24T11:27:11;3.70;;;1.07;;
5149;SDS011;2593;52.466;13.436;2023-04-24T11:29:42;8.57;;;1.13;;
5149;SDS011;2593;52.466;13.436;2023-04-24T11:35:02;4.70;;;1.10;;
5149;SDS011;2593;52.466;13.436;2023-04-24T11:37:38;6.93;;;1.47;;
5149;SDS011;2593;52.466;13.436;2023-04-24T11:40:06;1.60;;;1.20;;
5149;SDS011;2593;52.466;13.436;2023-04-24T11:42:37;2.10;;;1.33;;
5149;SDS011;2593;52.466;13.436;2023-04-24T11:45:08;17.33;;;3.30;;
5149;SDS011;2593;52.466;13.436;2023-04-24T11:47:35;2.40;;;2.17;;
5149;SDS011;2593;52.466;13.436;2023-04-24T11:50:02;2.20;;;1.70;;
5149;SDS011;2593;52.466;13.436;2023-04-24T11:52:29;3.57;;;1.50;;
5149;SDS011;2593;52.466;13.436;2023-04-24T11:54:55;4.73;;;1.20;;
5149;SDS011;2593;52.466;13.436;2023-04-24T11:57:21;3.53;;;1.30;;
5149;SDS011;2593;52.466;13.436;2023-04-24T11:59:48;3.70;;;2.07;;
5149;SDS011;2593;52.466;13.436;2023-04-24T12:02:21;3.20;;;1.17;;
5149;SDS011;2593;52.466;13.436;2023-04-24T12:04:47;2.50;;;1.17;;
5149;SDS011;2593;52.466;13.436;2023-04-24T12:07:13;9.97;;;1.20;;
5149;SDS011;2593;52.466;13.436;2023-04-24T12:12:20;1.03;;;0.87;;
5149;SDS011;2593;52.466;13.436;2023-04-24T12:14:52;3.73;;;1.30;;
5149;SDS011;2593;52.466;13.436;2023-04-24T12:17:23;1.30;;;1.17;;
5149;SDS011;2593;52.466;13.436;2023-04-24T12:19:57;6.30;;;1.60;;
5149;SDS011;2593;52.466;13.436;2023-04-24T12:22:27;1.50;;;1.40;;
5149;SDS011;2593;52.466;13.436;2023-04-24T12:27:22;2.40;;;1.20;;
5149;SDS011;2593;52.466;13.436;2023-04-24T12:30:09;1.50;;;1.40;;
5149;SDS011;2593;52.466;13.436;2023-04-24T12:32:43;6.63;;;1.83;;
5149;SDS011;2593;52.466;13.436;2023-04-24T12:35:11;2.83;;;1.10;;
5149;SDS011;2593;52.466;13.436;2023-04-24T12:37:37;5.23;;;1.13;;
5149;SDS011;2593;52.466;13.436;2023-04-24T12:42:33;1.30;;;1.00;;
5149;SDS011;2593;52.466;13.436;2023-04-24T12:45:06;2.43;;;1.00;;
5149;SDS011;2593;52.466;13.436;2023-04-24T12:47:33;2.10;;;0.80;;
5149;SDS011;2593;52.466;13.436;2023-04-24T12:50:00;2.47;;;1.30;;
5149;SDS011;2593;52.466;13.436;2023-04-24T12:52:27;1.27;;;0.70;;
5149;SDS011;2593;52.466;13.436;2023-04-24T12:54:54;1.00;;;0.90;;
5149;SDS011;2593;52.466;13.436;2023-04-24T12:57:22;2.90;;;0.80;;
5149;SDS011;2593;52.466;13.436;2023-04-24T12:59:48;1.67;;;0.70;;
5149;SDS011;2593;52.466;13.436;2023-04-24T13:02:14;1.57;;;1.00;;
5149;SDS011;2593;52.466;13.436;2023-04-24T13:04:43;1.40;;;0.87;;
5149;SDS011;2593;52.466;13.436;2023-04-24T13:07:11;1.40;;;0.80;;
5149;SDS011;2593;52.466;13.436;2023-04-24T13:09:37;1.40;;;0.77;;
5149;SDS011;2593;52.466;13.436;2023-04-24T13:12:03;1.33;;;0.73;;
5149;SDS011;2593;52.466;13.436;2023-04-24T13:14:30;8.23;;;1.30;;
5149;SDS011;2593;52.466;13.436;2023-04-24T13:16:56;10.73;;;1.13;;
5149;SDS011;2593;52.466;13.436;2023-04-24T13:19:23;12.60;;;1.07;;
5149;SDS011;2593;52.466;13.436;2023-04-24T13:21:51;1.33;;;0.80;;
5149;SDS011;2593;52.466;13.436;2023-04-24T13:24:17;3.37;;;0.83;;
5149;SDS011;2593;52.466;13.436;2023-04-24T13:26:42;0.97;;;0.90;;
5149;SDS011;2593;52.466;13.436;2023-04-24T13:29:08;6.23;;;1.00;;
5149;SDS011;2593;52.466;13.436;2023-04-24T13:31:34;0.90;;;0.70;;
5149;SDS011;2593;52.466;13.436;2023-04-24T13:34:00;4.00;;;0.80;;
5149;SDS011;2593;52.466;13.436;2023-04-24T13:36:27;1.37;;;0.87;;
5149;SDS011;2593;52.466;13.436;2023-04-24T13:38:52;6.83;;;0.80;;
5149;SDS011;2593;52.466;13.436;2023-04-24T13:41:18;4.20;;;0.80;;
5149;SDS011;2593;52.466;13.436;2023-04-24T13:43:44;6.93;;;1.30;;
5149;SDS011;2593;52.466;13.436;2023-04-24T13:46:09;1.80;;;1.13;;
5149;SDS011;2593;52.466;13.436;2023-04-24T13:48:35;3.30;;;1.90;;
5149;SDS011;2593;52.466;13.436;2023-04-24T13:51:01;1.73;;;1.30;;
5149;SDS011;2593;52.466;13.436;2023-04-24T13:53:26;4.73;;;0.90;;
5149;SDS011;2593;52.466;13.436;2023-04-24T13:55:52;1.70;;;1.23;;
5149;SDS011;2593;52.466;13.436;2023-04-24T13:58:17;5.60;;;0.90;;
5149;SDS011;2593;52.466;13.436;2023-04-24T14:00:43;2.57;;;1.07;;
5149;SDS011;2593;52.466;13.436;2023-04-24T14:03:09;2.37;;;0.90;;
5149;SDS011;2593;52.466;13.436;2023-04-24T14:05:35;3.30;;;1.47;;
5149;SDS011;2593;52.466;13.436;2023-04-24T14:08:01;2.87;;;0.93;;
5149;SDS011;2593;52.466;13.436;2023-04-24T14:10:27;4.40;;;1.10;;
5149;SDS011;2593;52.466;13.436;2023-04-24T14:12:53;1.67;;;1.00;;
5149;SDS011;2593;52.466;13.436;2023-04-24T14:15:18;1.47;;;1.10;;
5149;SDS011;2593;52.466;13.436;2023-04-24T14:17:44;3.90;;;1.20;;
5149;SDS011;2593;52.466;13.436;2023-04-24T14:20:10;3.20;;;1.20;;
5149;SDS011;2593;52.466;13.436;2023-04-24T14:22:37;1.47;;;1.00;;
5149;SDS011;2593;52.466;13.436;2023-04-24T14:25:02;2.30;;;1.20;;
5149;SDS011;2593;52.466;13.436;2023-04-24T14:27:29;0.80;;;0.80;;
5149;SDS011;2593;52.466;13.436;2023-04-24T14:29:55;6.03;;;0.87;;
5149;SDS011;2593;52.466;13.436;2023-04-24T14:32:21;8.23;;;1.03;;
5149;SDS011;2593;52.466;13.436;2023-04-24T14:34:46;9.87;;;1.30;;
5149;SDS011;2593;52.466;13.436;2023-04-24T14:37:12;2.60;;;1.10;;
5149;SDS011;2593;52.466;13.436;2023-04-24T14:39:38;2.90;;;0.93;;
5149;SDS011;2593;52.466;13.436;2023-04-24T14:42:03;3.80;;;1.20;;
5149;SDS011;2593;52.466;13.436;2023-04-24T14:44:29;1.30;;;1.00;;
5149;SDS011;2593;52.466;13.436;2023-04-24T14:46:55;1.63;;;0.90;;
5149;SDS011;2593;52.466;13.436;2023-04-24T14:49:20;3.37;;;1.80;;
5149;SDS011;2593;52.466;13.436;2023-04-24T14:51:46;6.67;;;1.10;;
5149;SDS011;2593;52.466;13.436;2023-04-24T14:54:12;6.13;;;1.00;;
5149;SDS011;2593;52.466;13.436;2023-04-24T14:56:38;3.30;;;1.33;;
5149;SDS011;2593;52.466;13.436;2023-04-24T14:59:05;2.07;;;0.90;;
5149;SDS011;2593;52.466;13.436;2023-04-24T15:01:32;2.50;;;1.20;;
5149;SDS011;2593;52.466;13.436;2023-04-24T15:03:57;7.03;;;2.20;;
5149;SDS011;2593;52.466;13.436;2023-04-24T15:06:23;1.53;;;1.20;;
5149;SDS011;2593;52.466;13.436;2023-04-24T15:08:49;1.20;;;1.10;;
5149;SDS011;2593;52.466;13.436;2023-04-24T15:11:15;4.53;;;1.20;;
5149;SDS011;2593;52.466;13.436;2023-04-24T15:13:41;8.90;;;1.43;;
5149;SDS011;2593;52.466;13.436;2023-04-24T15:16:06;1.10;;;1.00;;